sensor_id;sensor_type;location;lat;lon;timestamp;P1;durP1;ratioP1;P2;durP2;ratioP2
9974;SDS011;5028;50.974;4.968;2022-07-29T00:00:53;3.60;;;1.50;;
9974;SDS011;5028;50.974;4.968;2022-07-29T00:03:29;7.27;;;1.73;;
9974;SDS011;5028;50.974;4.968;2022-07-29T00:05:59;2.47;;;1.57;;
9974;SDS011;5028;50.974;4.968;2022-07-29T00:08:34;7.60;;;2.10;;
9974;SDS011;5028;50.974;4.968;2022-07-29T00:11:03;4.97;;;2.00;;
9974;SDS011;5028;50.974;4.968;2022-07-29T00:13:39;5.33;;;2.00;;
9974;SDS011;5028;50.974;4.968;2022-07-29T00:16:12;4.60;;;2.00;;
9974;SDS011;5028;50.974;4.968;2022-07-29T00:18:54;3.73;;;1.83;;
9974;SDS011;5028;50.974;4.968;2022-07-29T00:21:29;5.53;;;1.87;;
9974;SDS011;5028;50.974;4.968;2022-07-29T00:24:05;5.30;;;1.90;;
9974;SDS011;5028;50.974;4.968;2022-07-29T00:26:33;3.90;;;1.57;;
9974;SDS011;5028;50.974;4.968;2022-07-29T00:29:08;5.07;;;1.73;;
9974;SDS011;5028;50.974;4.968;2022-07-29T00:31:57;5.10;;;1.80;;
9974;SDS011;5028;50.974;4.968;2022-07-29T00:34:32;4.77;;;1.80;;
9974;SDS011;5028;50.974;4.968;2022-07-29T00:37:25;3.80;;;1.60;;
9974;SDS011;5028;50.974;4.968;2022-07-29T00:39:54;3.20;;;1.90;;
9974;SDS011;5028;50.974;4.968;2022-07-29T00:42:28;5.70;;;2.03;;
9974;SDS011;5028;50.974;4.968;2022-07-29T00:44:57;4.43;;;1.70;;
9974;SDS011;5028;50.974;4.968;2022-07-29T00:47:32;4.33;;;2.10;;
9974;SDS011;5028;50.974;4.968;2022-07-29T00:50:00;5.77;;;1.80;;
9974;SDS011;5028;50.974;4.968;2022-07-29T00:52:37;3.07;;;1.60;;
9974;SDS011;5028;50.974;4.968;2022-07-29T00:55:08;2.77;;;1.67;;
9974;SDS011;5028;50.974;4.968;2022-07-29T00:57:45;3.63;;;1.97;;
9974;SDS011;5028;50.974;4.968;2022-07-29T01:00:14;6.57;;;1.70;;
9974;SDS011;5028;50.974;4.968;2022-07-29T01:02:50;6.47;;;2.17;;
9974;SDS011;5028;50.974;4.968;2022-07-29T01:05:20;5.90;;;2.13;;
9974;SDS011;5028;50.974;4.968;2022-07-29T01:08:17;6.90;;;2.10;;
9974;SDS011;5028;50.974;4.968;2022-07-29T01:10:47;3.20;;;2.10;;
9974;SDS011;5028;50.974;4.968;2022-07-29T01:13:25;4.80;;;2.20;;
9974;SDS011;5028;50.974;4.968;2022-07-29T01:15:54;3.23;;;2.10;;
9974;SDS011;5028;50.974;4.968;2022-07-29T01:18:33;4.23;;;2.07;;
9974;SDS011;5028;50.974;4.968;2022-07-29T01:21:23;6.30;;;1.90;;
9974;SDS011;5028;50.974;4.968;2022-07-29T01:24:14;5.37;;;2.60;;
9974;SDS011;5028;50.974;4.968;2022-07-29T01:26:58;4.97;;;2.07;;
9974;SDS011;5028;50.974;4.968;2022-07-29T01:29:45;6.23;;;2.13;;
9974;SDS011;5028;50.974;4.968;2022-07-29T01:32:18;4.23;;;2.00;;
9974;SDS011;5028;50.974;4.968;2022-07-29T01:34:58;6.90;;;2.20;;
9974;SDS011;5028;50.974;4.968;2022-07-29T01:37:32;5.63;;;2.10;;
9974;SDS011;5028;50.974;4.968;2022-07-29T01:40:19;5.13;;;2.10;;
9974;SDS011;5028;50.974;4.968;2022-07-29T01:42:50;5.47;;;2.40;;
9974;SDS011;5028;50.974;4.968;2022-07-29T01:45:31;6.57;;;2.23;;
9974;SDS011;5028;50.974;4.968;2022-07-29T01:48:10;4.93;;;2.07;;
9974;SDS011;5028;50.974;4.968;2022-07-29T01:50:48;5.23;;;2.00;;
9974;SDS011;5028;50.974;4.968;2022-07-29T01:53:21;6.73;;;2.27;;
9974;SDS011;5028;50.974;4.968;2022-07-29T01:56:03;6.40;;;2.10;;
9974;SDS011;5028;50.974;4.968;2022-07-29T01:58:34;3.67;;;2.00;;
9974;SDS011;5028;50.974;4.968;2022-07-29T02:01:13;7.23;;;2.27;;
9974;SDS011;5028;50.974;4.968;2022-07-29T02:03:44;3.67;;;2.10;;
9974;SDS011;5028;50.974;4.968;2022-07-29T02:06:21;5.13;;;1.80;;
9974;SDS011;5028;50.974;4.968;2022-07-29T02:08:51;3.50;;;1.83;;
9974;SDS011;5028;50.974;4.968;2022-07-29T02:11:26;4.87;;;2.50;;
9974;SDS011;5028;50.974;4.968;2022-07-29T02:13:57;4.50;;;2.00;;
9974;SDS011;5028;50.974;4.968;2022-07-29T02:16:35;4.77;;;2.20;;
9974;SDS011;5028;50.974;4.968;2022-07-29T02:19:06;5.17;;;2.20;;
9974;SDS011;5028;50.974;4.968;2022-07-29T02:21:49;3.27;;;2.30;;
9974;SDS011;5028;50.974;4.968;2022-07-29T02:24:20;5.33;;;2.47;;
9974;SDS011;5028;50.974;4.968;2022-07-29T02:26:58;3.70;;;2.33;;
9974;SDS011;5028;50.974;4.968;2022-07-29T02:29:28;7.40;;;2.50;;
9974;SDS011;5028;50.974;4.968;2022-07-29T02:32:07;9.93;;;2.60;;
9974;SDS011;5028;50.974;4.968;2022-07-29T02:34:38;5.27;;;2.40;;
9974;SDS011;5028;50.974;4.968;2022-07-29T02:37:16;5.57;;;2.60;;
9974;SDS011;5028;50.974;4.968;2022-07-29T02:39:45;6.70;;;2.80;;
9974;SDS011;5028;50.974;4.968;2022-07-29T02:42:23;3.70;;;2.60;;
9974;SDS011;5028;50.974;4.968;2022-07-29T02:44:54;4.67;;;2.83;;
9974;SDS011;5028;50.974;4.968;2022-07-29T02:47:33;5.50;;;2.97;;
9974;SDS011;5028;50.974;4.968;2022-07-29T02:50:09;4.87;;;2.60;;
9974;SDS011;5028;50.974;4.968;2022-07-29T02:52:51;4.43;;;2.50;;
9974;SDS011;5028;50.974;4.968;2022-07-29T02:55:22;4.37;;;2.30;;
9974;SDS011;5028;50.974;4.968;2022-07-29T02:58:02;5.00;;;2.47;;
9974;SDS011;5028;50.974;4.968;2022-07-29T03:00:36;4.40;;;2.60;;
9974;SDS011;5028;50.974;4.968;2022-07-29T03:03:15;6.10;;;2.60;;
9974;SDS011;5028;50.974;4.968;2022-07-29T03:05:45;4.53;;;2.40;;
9974;SDS011;5028;50.974;4.968;2022-07-29T03:08:21;2.67;;;2.17;;
9974;SDS011;5028;50.974;4.968;2022-07-29T03:10:50;3.50;;;2.30;;
9974;SDS011;5028;50.974;4.968;2022-07-29T03:13:27;6.03;;;2.50;;
9974;SDS011;5028;50.974;4.968;2022-07-29T03:15:57;5.57;;;2.50;;
9974;SDS011;5028;50.974;4.968;2022-07-29T03:18:44;3.70;;;2.40;;
9974;SDS011;5028;50.974;4.968;2022-07-29T03:21:26;5.57;;;2.43;;
9974;SDS011;5028;50.974;4.968;2022-07-29T03:24:01;4.50;;;2.50;;
9974;SDS011;5028;50.974;4.968;2022-07-29T03:26:37;5.37;;;2.13;;
9974;SDS011;5028;50.974;4.968;2022-07-29T03:29:13;5.53;;;2.47;;
9974;SDS011;5028;50.974;4.968;2022-07-29T03:31:45;5.50;;;2.30;;
9974;SDS011;5028;50.974;4.968;2022-07-29T03:34:21;6.20;;;2.10;;
9974;SDS011;5028;50.974;4.968;2022-07-29T03:36:50;3.03;;;2.03;;
9974;SDS011;5028;50.974;4.968;2022-07-29T03:39:25;5.70;;;2.53;;
9974;SDS011;5028;50.974;4.968;2022-07-29T03:41:58;3.33;;;2.50;;
9974;SDS011;5028;50.974;4.968;2022-07-29T03:44:35;4.13;;;2.20;;
9974;SDS011;5028;50.974;4.968;2022-07-29T03:47:04;3.27;;;2.10;;
9974;SDS011;5028;50.974;4.968;2022-07-29T03:49:44;3.67;;;2.27;;
9974;SDS011;5028;50.974;4.968;2022-07-29T03:52:16;3.37;;;2.20;;
9974;SDS011;5028;50.974;4.968;2022-07-29T03:54:51;5.40;;;2.40;;
9974;SDS011;5028;50.974;4.968;2022-07-29T03:57:21;6.23;;;2.73;;
9974;SDS011;5028;50.974;4.968;2022-07-29T03:59:59;3.30;;;2.37;;
9974;SDS011;5028;50.974;4.968;2022-07-29T04:02:30;5.80;;;2.70;;
9974;SDS011;5028;50.974;4.968;2022-07-29T04:05:12;3.73;;;2.53;;
9974;SDS011;5028;50.974;4.968;2022-07-29T04:07:43;5.03;;;2.30;;
9974;SDS011;5028;50.974;4.968;2022-07-29T04:10:18;6.77;;;2.67;;
9974;SDS011;5028;50.974;4.968;2022-07-29T04:12:57;3.37;;;2.07;;
9974;SDS011;5028;50.974;4.968;2022-07-29T04:15:32;3.13;;;2.27;;
9974;SDS011;5028;50.974;4.968;2022-07-29T04:18:01;3.83;;;2.40;;
9974;SDS011;5028;50.974;4.968;2022-07-29T04:20:44;7.07;;;2.63;;
9974;SDS011;5028;50.974;4.968;2022-07-29T04:23:12;4.67;;;2.63;;
9974;SDS011;5028;50.974;4.968;2022-07-29T04:25:48;5.00;;;2.37;;
9974;SDS011;5028;50.974;4.968;2022-07-29T04:28:16;3.43;;;2.03;;
9974;SDS011;5028;50.974;4.968;2022-07-29T04:30:52;3.97;;;2.37;;
9974;SDS011;5028;50.974;4.968;2022-07-29T04:33:20;5.37;;;2.73;;
9974;SDS011;5028;50.974;4.968;2022-07-29T04:35:58;5.93;;;2.50;;
9974;SDS011;5028;50.974;4.968;2022-07-29T04:38:26;4.33;;;2.40;;
9974;SDS011;5028;50.974;4.968;2022-07-29T04:41:01;5.33;;;2.40;;
9974;SDS011;5028;50.974;4.968;2022-07-29T04:43:31;4.03;;;2.30;;
9974;SDS011;5028;50.974;4.968;2022-07-29T04:46:07;5.27;;;2.60;;
9974;SDS011;5028;50.974;4.968;2022-07-29T04:48:35;4.10;;;2.50;;
9974;SDS011;5028;50.974;4.968;2022-07-29T04:51:11;4.83;;;2.43;;
9974;SDS011;5028;50.974;4.968;2022-07-29T04:53:40;4.60;;;2.50;;
9974;SDS011;5028;50.974;4.968;2022-07-29T04:56:15;4.13;;;2.30;;
9974;SDS011;5028;50.974;4.968;2022-07-29T04:58:43;3.60;;;2.50;;
9974;SDS011;5028;50.974;4.968;2022-07-29T05:01:19;5.23;;;2.60;;
9974;SDS011;5028;50.974;4.968;2022-07-29T05:03:47;4.60;;;2.53;;
9974;SDS011;5028;50.974;4.968;2022-07-29T05:06:27;4.43;;;2.30;;
9974;SDS011;5028;50.974;4.968;2022-07-29T05:08:56;6.47;;;2.40;;
9974;SDS011;5028;50.974;4.968;2022-07-29T05:11:31;2.77;;;2.43;;
9974;SDS011;5028;50.974;4.968;2022-07-29T05:13:59;6.83;;;2.37;;
9974;SDS011;5028;50.974;4.968;2022-07-29T05:16:34;5.20;;;2.33;;
9974;SDS011;5028;50.974;4.968;2022-07-29T05:19:03;5.90;;;2.60;;
9974;SDS011;5028;50.974;4.968;2022-07-29T05:21:41;4.03;;;2.70;;
9974;SDS011;5028;50.974;4.968;2022-07-29T05:24:18;4.77;;;2.50;;
9974;SDS011;5028;50.974;4.968;2022-07-29T05:26:54;5.87;;;2.50;;
9974;SDS011;5028;50.974;4.968;2022-07-29T05:29:23;4.57;;;2.50;;
9974;SDS011;5028;50.974;4.968;2022-07-29T05:32:11;4.43;;;2.70;;
9974;SDS011;5028;50.974;4.968;2022-07-29T05:34:39;4.27;;;2.60;;
9974;SDS011;5028;50.974;4.968;2022-07-29T05:37:18;4.00;;;2.73;;
9974;SDS011;5028;50.974;4.968;2022-07-29T05:39:50;6.30;;;2.90;;
9974;SDS011;5028;50.974;4.968;2022-07-29T05:42:25;3.83;;;2.80;;
9974;SDS011;5028;50.974;4.968;2022-07-29T05:44:55;5.13;;;2.67;;
9974;SDS011;5028;50.974;4.968;2022-07-29T05:47:30;7.47;;;2.73;;
9974;SDS011;5028;50.974;4.968;2022-07-29T05:49:58;3.67;;;2.87;;
9974;SDS011;5028;50.974;4.968;2022-07-29T05:52:35;5.77;;;3.03;;
9974;SDS011;5028;50.974;4.968;2022-07-29T05:55:04;6.53;;;2.90;;
9974;SDS011;5028;50.974;4.968;2022-07-29T05:57:40;5.67;;;3.33;;
9974;SDS011;5028;50.974;4.968;2022-07-29T06:00:10;4.10;;;3.00;;
9974;SDS011;5028;50.974;4.968;2022-07-29T06:02:46;4.27;;;2.90;;
9974;SDS011;5028;50.974;4.968;2022-07-29T06:05:15;8.70;;;3.37;;
9974;SDS011;5028;50.974;4.968;2022-07-29T06:07:51;5.07;;;3.13;;
9974;SDS011;5028;50.974;4.968;2022-07-29T06:10:20;4.63;;;3.10;;
9974;SDS011;5028;50.974;4.968;2022-07-29T06:12:55;7.17;;;3.27;;
9974;SDS011;5028;50.974;4.968;2022-07-29T06:15:24;6.43;;;3.00;;
9974;SDS011;5028;50.974;4.968;2022-07-29T06:17:59;4.43;;;3.40;;
9974;SDS011;5028;50.974;4.968;2022-07-29T06:20:34;4.77;;;2.80;;
9974;SDS011;5028;50.974;4.968;2022-07-29T06:23:11;5.73;;;3.17;;
9974;SDS011;5028;50.974;4.968;2022-07-29T06:25:40;4.17;;;2.90;;
9974;SDS011;5028;50.974;4.968;2022-07-29T06:28:15;8.50;;;3.33;;
9974;SDS011;5028;50.974;4.968;2022-07-29T06:30:43;3.50;;;3.20;;
9974;SDS011;5028;50.974;4.968;2022-07-29T06:33:18;3.97;;;3.30;;
9974;SDS011;5028;50.974;4.968;2022-07-29T06:35:46;4.10;;;3.07;;
9974;SDS011;5028;50.974;4.968;2022-07-29T06:38:23;5.23;;;3.17;;
9974;SDS011;5028;50.974;4.968;2022-07-29T06:40:59;5.33;;;3.33;;
9974;SDS011;5028;50.974;4.968;2022-07-29T06:43:36;4.53;;;3.57;;
9974;SDS011;5028;50.974;4.968;2022-07-29T06:46:16;3.60;;;3.13;;
9974;SDS011;5028;50.974;4.968;2022-07-29T06:48:52;4.90;;;3.10;;
9974;SDS011;5028;50.974;4.968;2022-07-29T06:51:21;6.47;;;3.60;;
9974;SDS011;5028;50.974;4.968;2022-07-29T06:53:58;6.50;;;3.10;;
9974;SDS011;5028;50.974;4.968;2022-07-29T06:56:29;3.77;;;2.97;;
9974;SDS011;5028;50.974;4.968;2022-07-29T06:59:06;4.90;;;3.70;;
9974;SDS011;5028;50.974;4.968;2022-07-29T07:01:36;5.97;;;3.63;;
9974;SDS011;5028;50.974;4.968;2022-07-29T07:04:12;6.73;;;3.57;;
9974;SDS011;5028;50.974;4.968;2022-07-29T07:06:42;4.93;;;3.13;;
9974;SDS011;5028;50.974;4.968;2022-07-29T07:09:18;5.93;;;3.60;;
9974;SDS011;5028;50.974;4.968;2022-07-29T07:11:47;5.90;;;3.70;;
9974;SDS011;5028;50.974;4.968;2022-07-29T07:14:22;7.80;;;3.53;;
9974;SDS011;5028;50.974;4.968;2022-07-29T07:16:53;5.23;;;3.20;;
9974;SDS011;5028;50.974;4.968;2022-07-29T07:19:28;3.87;;;3.10;;
9974;SDS011;5028;50.974;4.968;2022-07-29T07:22:04;3.93;;;3.00;;
9974;SDS011;5028;50.974;4.968;2022-07-29T07:24:40;3.73;;;3.27;;
9974;SDS011;5028;50.974;4.968;2022-07-29T07:27:09;4.10;;;3.27;;
9974;SDS011;5028;50.974;4.968;2022-07-29T07:29:44;5.37;;;3.43;;
9974;SDS011;5028;50.974;4.968;2022-07-29T07:32:19;5.83;;;3.17;;
9974;SDS011;5028;50.974;4.968;2022-07-29T07:34:47;4.37;;;3.27;;
9974;SDS011;5028;50.974;4.968;2022-07-29T07:37:24;4.17;;;3.20;;
9974;SDS011;5028;50.974;4.968;2022-07-29T07:39:54;5.23;;;2.90;;
9974;SDS011;5028;50.974;4.968;2022-07-29T07:42:29;4.80;;;3.10;;
9974;SDS011;5028;50.974;4.968;2022-07-29T07:44:57;5.63;;;3.07;;
9974;SDS011;5028;50.974;4.968;2022-07-29T07:47:41;4.07;;;2.93;;
9974;SDS011;5028;50.974;4.968;2022-07-29T07:50:12;7.13;;;3.33;;
9974;SDS011;5028;50.974;4.968;2022-07-29T07:52:49;5.27;;;3.27;;
9974;SDS011;5028;50.974;4.968;2022-07-29T07:55:21;5.27;;;3.47;;
9974;SDS011;5028;50.974;4.968;2022-07-29T07:58:16;4.93;;;2.90;;
9974;SDS011;5028;50.974;4.968;2022-07-29T08:00:45;5.37;;;3.20;;
9974;SDS011;5028;50.974;4.968;2022-07-29T08:03:20;4.90;;;3.17;;
9974;SDS011;5028;50.974;4.968;2022-07-29T08:05:48;6.97;;;3.27;;
9974;SDS011;5028;50.974;4.968;2022-07-29T08:08:24;6.77;;;3.40;;
9974;SDS011;5028;50.974;4.968;2022-07-29T08:10:54;5.03;;;3.40;;
9974;SDS011;5028;50.974;4.968;2022-07-29T08:13:35;6.50;;;3.30;;
9974;SDS011;5028;50.974;4.968;2022-07-29T08:16:05;3.23;;;2.93;;
9974;SDS011;5028;50.974;4.968;2022-07-29T08:19:01;4.03;;;3.20;;
9974;SDS011;5028;50.974;4.968;2022-07-29T08:21:42;5.60;;;2.73;;
9974;SDS011;5028;50.974;4.968;2022-07-29T08:24:17;4.90;;;2.90;;
9974;SDS011;5028;50.974;4.968;2022-07-29T08:27:05;7.53;;;2.73;;
9974;SDS011;5028;50.974;4.968;2022-07-29T08:30:00;6.30;;;2.97;;
9974;SDS011;5028;50.974;4.968;2022-07-29T08:32:29;4.17;;;2.53;;
9974;SDS011;5028;50.974;4.968;2022-07-29T08:35:21;4.13;;;2.70;;
9974;SDS011;5028;50.974;4.968;2022-07-29T08:37:50;4.90;;;2.60;;
9974;SDS011;5028;50.974;4.968;2022-07-29T08:40:27;4.83;;;2.43;;
9974;SDS011;5028;50.974;4.968;2022-07-29T08:42:59;7.03;;;2.53;;
9974;SDS011;5028;50.974;4.968;2022-07-29T08:45:41;6.87;;;2.60;;
9974;SDS011;5028;50.974;4.968;2022-07-29T08:48:14;6.40;;;2.40;;
9974;SDS011;5028;50.974;4.968;2022-07-29T08:50:49;5.47;;;2.47;;
9974;SDS011;5028;50.974;4.968;2022-07-29T08:53:25;4.73;;;2.43;;
9974;SDS011;5028;50.974;4.968;2022-07-29T08:56:02;3.73;;;2.57;;
9974;SDS011;5028;50.974;4.968;2022-07-29T08:58:33;5.53;;;2.50;;
9974;SDS011;5028;50.974;4.968;2022-07-29T09:01:13;4.20;;;2.10;;
9974;SDS011;5028;50.974;4.968;2022-07-29T09:03:45;7.90;;;2.40;;
9974;SDS011;5028;50.974;4.968;2022-07-29T09:06:22;3.07;;;2.20;;
9974;SDS011;5028;50.974;4.968;2022-07-29T09:08:54;3.10;;;2.10;;
9974;SDS011;5028;50.974;4.968;2022-07-29T09:11:33;4.30;;;2.40;;
9974;SDS011;5028;50.974;4.968;2022-07-29T09:14:03;3.40;;;2.40;;
9974;SDS011;5028;50.974;4.968;2022-07-29T09:16:43;3.97;;;2.50;;
9974;SDS011;5028;50.974;4.968;2022-07-29T09:19:25;4.10;;;2.60;;
9974;SDS011;5028;50.974;4.968;2022-07-29T09:22:09;4.53;;;2.40;;
9974;SDS011;5028;50.974;4.968;2022-07-29T09:24:46;5.77;;;2.70;;
9974;SDS011;5028;50.974;4.968;2022-07-29T09:27:18;6.67;;;2.23;;
9974;SDS011;5028;50.974;4.968;2022-07-29T09:29:57;5.10;;;2.20;;
9974;SDS011;5028;50.974;4.968;2022-07-29T09:32:27;4.87;;;2.10;;
9974;SDS011;5028;50.974;4.968;2022-07-29T09:35:15;3.97;;;2.43;;
9974;SDS011;5028;50.974;4.968;2022-07-29T09:37:47;2.47;;;2.00;;
9974;SDS011;5028;50.974;4.968;2022-07-29T09:40:23;7.30;;;2.30;;
9974;SDS011;5028;50.974;4.968;2022-07-29T09:42:53;5.27;;;2.27;;
9974;SDS011;5028;50.974;4.968;2022-07-29T09:45:32;3.00;;;2.30;;
9974;SDS011;5028;50.974;4.968;2022-07-29T09:48:12;4.60;;;1.87;;
9974;SDS011;5028;50.974;4.968;2022-07-29T09:50:50;5.00;;;1.93;;
9974;SDS011;5028;50.974;4.968;2022-07-29T09:53:29;3.37;;;1.90;;
9974;SDS011;5028;50.974;4.968;2022-07-29T09:56:06;6.13;;;2.50;;
9974;SDS011;5028;50.974;4.968;2022-07-29T09:58:37;10.97;;;2.37;;
9974;SDS011;5028;50.974;4.968;2022-07-29T10:01:14;4.80;;;2.10;;
9974;SDS011;5028;50.974;4.968;2022-07-29T10:03:51;3.40;;;1.80;;
9974;SDS011;5028;50.974;4.968;2022-07-29T10:06:27;3.57;;;1.63;;
9974;SDS011;5028;50.974;4.968;2022-07-29T10:09:06;2.00;;;1.80;;
9974;SDS011;5028;50.974;4.968;2022-07-29T10:11:47;4.63;;;1.70;;
9974;SDS011;5028;50.974;4.968;2022-07-29T10:14:30;3.60;;;1.70;;
9974;SDS011;5028;50.974;4.968;2022-07-29T10:17:08;2.93;;;1.90;;
9974;SDS011;5028;50.974;4.968;2022-07-29T10:19:38;2.07;;;1.50;;
9974;SDS011;5028;50.974;4.968;2022-07-29T10:22:20;1.60;;;1.33;;
9974;SDS011;5028;50.974;4.968;2022-07-29T10:25:09;3.40;;;1.50;;
9974;SDS011;5028;50.974;4.968;2022-07-29T10:27:46;3.80;;;1.40;;
9974;SDS011;5028;50.974;4.968;2022-07-29T10:30:17;3.37;;;1.60;;
9974;SDS011;5028;50.974;4.968;2022-07-29T10:33:09;5.28;;;1.75;;
9974;SDS011;5028;50.974;4.968;2022-07-29T10:36:03;2.55;;;1.60;;
9974;SDS011;5028;50.974;4.968;2022-07-29T10:38:51;3.03;;;1.70;;
9974;SDS011;5028;50.974;4.968;2022-07-29T10:41:45;4.38;;;1.77;;
9974;SDS011;5028;50.974;4.968;2022-07-29T10:44:30;2.15;;;1.60;;
9974;SDS011;5028;50.974;4.968;2022-07-29T10:47:00;2.90;;;1.80;;
9974;SDS011;5028;50.974;4.968;2022-07-29T10:49:36;4.05;;;1.70;;
9974;SDS011;5028;50.974;4.968;2022-07-29T10:55:34;2.92;;;1.48;;
9974;SDS011;5028;50.974;4.968;2022-07-29T10:58:12;4.75;;;1.90;;
9974;SDS011;5028;50.974;4.968;2022-07-29T11:00:50;3.58;;;1.42;;
9974;SDS011;5028;50.974;4.968;2022-07-29T11:06:23;2.28;;;1.55;;
9974;SDS011;5028;50.974;4.968;2022-07-29T11:09:15;2.80;;;1.70;;
9974;SDS011;5028;50.974;4.968;2022-07-29T11:12:03;4.22;;;1.70;;
9974;SDS011;5028;50.974;4.968;2022-07-29T11:14:56;2.92;;;1.48;;
9974;SDS011;5028;50.974;4.968;2022-07-29T11:17:47;3.70;;;1.40;;
9974;SDS011;5028;50.974;4.968;2022-07-29T11:20:41;2.55;;;1.60;;
9974;SDS011;5028;50.974;4.968;2022-07-29T11:26:12;2.67;;;1.60;;
9974;SDS011;5028;50.974;4.968;2022-07-29T11:28:54;5.10;;;1.73;;
9974;SDS011;5028;50.974;4.968;2022-07-29T11:31:34;3.00;;;1.75;;
9974;SDS011;5028;50.974;4.968;2022-07-29T11:34:19;2.50;;;1.33;;
9974;SDS011;5028;50.974;4.968;2022-07-29T11:40:15;2.17;;;1.33;;
9974;SDS011;5028;50.974;4.968;2022-07-29T11:42:47;2.90;;;1.30;;
9974;SDS011;5028;50.974;4.968;2022-07-29T11:45:27;2.50;;;1.33;;
9974;SDS011;5028;50.974;4.968;2022-07-29T11:48:15;3.35;;;1.50;;
9974;SDS011;5028;50.974;4.968;2022-07-29T11:51:11;4.72;;;1.50;;
9974;SDS011;5028;50.974;4.968;2022-07-29T11:53:41;2.70;;;1.45;;
9974;SDS011;5028;50.974;4.968;2022-07-29T11:56:29;2.38;;;1.27;;
9974;SDS011;5028;50.974;4.968;2022-07-29T11:59:03;4.50;;;1.45;;
9974;SDS011;5028;50.974;4.968;2022-07-29T12:01:51;3.22;;;1.40;;
9974;SDS011;5028;50.974;4.968;2022-07-29T12:04:47;1.60;;;1.40;;
9974;SDS011;5028;50.974;4.968;2022-07-29T12:07:26;3.00;;;1.30;;
9974;SDS011;5028;50.974;4.968;2022-07-29T12:10:03;3.05;;;1.40;;
9974;SDS011;5028;50.974;4.968;2022-07-29T12:12:52;2.80;;;1.50;;
9974;SDS011;5028;50.974;4.968;2022-07-29T12:15:20;3.25;;;1.48;;
9974;SDS011;5028;50.974;4.968;2022-07-29T12:18:15;4.50;;;1.80;;
9974;SDS011;5028;50.974;4.968;2022-07-29T12:20:56;2.55;;;1.50;;
9974;SDS011;5028;50.974;4.968;2022-07-29T12:23:33;4.95;;;1.80;;
9974;SDS011;5028;50.974;4.968;2022-07-29T12:26:03;3.45;;;1.70;;
9974;SDS011;5028;50.974;4.968;2022-07-29T12:28:52;3.67;;;1.60;;
9974;SDS011;5028;50.974;4.968;2022-07-29T12:31:22;7.00;;;1.63;;
9974;SDS011;5028;50.974;4.968;2022-07-29T12:34:10;4.13;;;1.77;;
9974;SDS011;5028;50.974;4.968;2022-07-29T12:36:40;3.33;;;1.63;;
9974;SDS011;5028;50.974;4.968;2022-07-29T12:39:16;5.75;;;1.90;;
9974;SDS011;5028;50.974;4.968;2022-07-29T12:41:47;4.70;;;1.58;;
9974;SDS011;5028;50.974;4.968;2022-07-29T12:44:44;2.83;;;1.65;;
9974;SDS011;5028;50.974;4.968;2022-07-29T12:47:14;5.28;;;1.90;;
9974;SDS011;5028;50.974;4.968;2022-07-29T12:49:49;3.60;;;1.80;;
9974;SDS011;5028;50.974;4.968;2022-07-29T12:52:28;2.80;;;1.70;;
9974;SDS011;5028;50.974;4.968;2022-07-29T12:55:04;5.20;;;1.55;;
9974;SDS011;5028;50.974;4.968;2022-07-29T12:57:44;3.83;;;1.58;;
9974;SDS011;5028;50.974;4.968;2022-07-29T13:00:23;3.10;;;1.42;;
9974;SDS011;5028;50.974;4.968;2022-07-29T13:02:54;3.72;;;1.70;;
9974;SDS011;5028;50.974;4.968;2022-07-29T13:05:39;3.00;;;1.48;;
9974;SDS011;5028;50.974;4.968;2022-07-29T13:08:15;3.05;;;1.55;;
9974;SDS011;5028;50.974;4.968;2022-07-29T13:10:53;3.47;;;1.73;;
9974;SDS011;5028;50.974;4.968;2022-07-29T13:13:21;3.60;;;1.60;;
9974;SDS011;5028;50.974;4.968;2022-07-29T13:16:06;7.10;;;1.75;;
9974;SDS011;5028;50.974;4.968;2022-07-29T13:18:35;7.00;;;1.60;;
9974;SDS011;5028;50.974;4.968;2022-07-29T13:21:11;6.47;;;1.63;;
9974;SDS011;5028;50.974;4.968;2022-07-29T13:23:47;6.53;;;2.00;;
9974;SDS011;5028;50.974;4.968;2022-07-29T13:26:21;3.60;;;1.50;;
9974;SDS011;5028;50.974;4.968;2022-07-29T13:28:50;3.45;;;1.50;;
9974;SDS011;5028;50.974;4.968;2022-07-29T13:31:27;2.92;;;1.50;;
9974;SDS011;5028;50.974;4.968;2022-07-29T13:33:55;4.25;;;1.65;;
9974;SDS011;5028;50.974;4.968;2022-07-29T13:36:30;3.85;;;1.60;;
9974;SDS011;5028;50.974;4.968;2022-07-29T13:39:05;3.47;;;1.40;;
9974;SDS011;5028;50.974;4.968;2022-07-29T13:41:40;4.43;;;1.50;;
9974;SDS011;5028;50.974;4.968;2022-07-29T13:44:10;2.05;;;1.40;;
9974;SDS011;5028;50.974;4.968;2022-07-29T13:46:47;3.58;;;1.50;;
9974;SDS011;5028;50.974;4.968;2022-07-29T13:49:16;3.40;;;1.50;;
9974;SDS011;5028;50.974;4.968;2022-07-29T13:51:51;5.15;;;1.30;;
9974;SDS011;5028;50.974;4.968;2022-07-29T13:54:21;3.20;;;1.67;;
9974;SDS011;5028;50.974;4.968;2022-07-29T13:56:56;3.78;;;1.77;;
9974;SDS011;5028;50.974;4.968;2022-07-29T13:59:25;5.07;;;1.60;;
9974;SDS011;5028;50.974;4.968;2022-07-29T14:02:01;3.53;;;1.50;;
9974;SDS011;5028;50.974;4.968;2022-07-29T14:04:30;6.10;;;1.65;;
9974;SDS011;5028;50.974;4.968;2022-07-29T14:07:06;4.97;;;1.40;;
9974;SDS011;5028;50.974;4.968;2022-07-29T14:09:41;4.43;;;1.70;;
9974;SDS011;5028;50.974;4.968;2022-07-29T14:12:16;4.88;;;1.40;;
9974;SDS011;5028;50.974;4.968;2022-07-29T14:14:45;3.35;;;1.33;;
9974;SDS011;5028;50.974;4.968;2022-07-29T14:17:22;3.85;;;1.50;;
9974;SDS011;5028;50.974;4.968;2022-07-29T14:19:51;3.63;;;1.40;;
9974;SDS011;5028;50.974;4.968;2022-07-29T14:22:32;4.28;;;1.63;;
9974;SDS011;5028;50.974;4.968;2022-07-29T14:25:08;3.28;;;1.40;;
9974;SDS011;5028;50.974;4.968;2022-07-29T14:27:42;4.50;;;1.30;;
9974;SDS011;5028;50.974;4.968;2022-07-29T14:30:12;4.93;;;1.73;;
9974;SDS011;5028;50.974;4.968;2022-07-29T14:32:49;5.22;;;1.73;;
9974;SDS011;5028;50.974;4.968;2022-07-29T14:35:17;3.13;;;1.88;;
9974;SDS011;5028;50.974;4.968;2022-07-29T14:37:52;6.50;;;1.80;;
9974;SDS011;5028;50.974;4.968;2022-07-29T14:40:21;4.35;;;1.60;;
9974;SDS011;5028;50.974;4.968;2022-07-29T14:42:56;2.28;;;1.50;;
9974;SDS011;5028;50.974;4.968;2022-07-29T14:45:25;3.88;;;1.60;;
9974;SDS011;5028;50.974;4.968;2022-07-29T14:48:02;2.80;;;1.30;;
9974;SDS011;5028;50.974;4.968;2022-07-29T14:50:31;2.22;;;1.58;;
9974;SDS011;5028;50.974;4.968;2022-07-29T14:53:06;5.18;;;1.45;;
9974;SDS011;5028;50.974;4.968;2022-07-29T14:55:35;4.13;;;1.40;;
9974;SDS011;5028;50.974;4.968;2022-07-29T14:58:10;6.22;;;1.50;;
9974;SDS011;5028;50.974;4.968;2022-07-29T15:00:42;4.88;;;1.60;;
9974;SDS011;5028;50.974;4.968;2022-07-29T15:03:18;3.75;;;1.30;;
9974;SDS011;5028;50.974;4.968;2022-07-29T15:05:49;4.07;;;1.40;;
9974;SDS011;5028;50.974;4.968;2022-07-29T15:08:24;4.68;;;1.50;;
9974;SDS011;5028;50.974;4.968;2022-07-29T15:10:56;3.95;;;1.52;;
9974;SDS011;5028;50.974;4.968;2022-07-29T15:13:32;3.75;;;1.60;;
9974;SDS011;5028;50.974;4.968;2022-07-29T15:16:01;1.55;;;1.30;;
9974;SDS011;5028;50.974;4.968;2022-07-29T15:18:38;5.03;;;1.63;;
9974;SDS011;5028;50.974;4.968;2022-07-29T15:21:07;5.32;;;1.60;;
9974;SDS011;5028;50.974;4.968;2022-07-29T15:23:41;4.45;;;1.42;;
9974;SDS011;5028;50.974;4.968;2022-07-29T15:26:10;3.53;;;1.48;;
9974;SDS011;5028;50.974;4.968;2022-07-29T15:28:45;5.68;;;1.50;;
9974;SDS011;5028;50.974;4.968;2022-07-29T15:31:14;2.30;;;1.45;;
9974;SDS011;5028;50.974;4.968;2022-07-29T15:33:51;3.60;;;1.50;;
9974;SDS011;5028;50.974;4.968;2022-07-29T15:36:25;4.07;;;1.50;;
9974;SDS011;5028;50.974;4.968;2022-07-29T15:39:17;3.53;;;1.48;;
9974;SDS011;5028;50.974;4.968;2022-07-29T15:41:46;6.43;;;1.73;;
9974;SDS011;5028;50.974;4.968;2022-07-29T15:44:22;3.40;;;1.50;;
9974;SDS011;5028;50.974;4.968;2022-07-29T15:46:50;6.27;;;1.60;;
9974;SDS011;5028;50.974;4.968;2022-07-29T15:49:39;6.45;;;1.83;;
9974;SDS011;5028;50.974;4.968;2022-07-29T15:52:15;2.58;;;1.60;;
9974;SDS011;5028;50.974;4.968;2022-07-29T15:54:52;4.15;;;1.90;;
9974;SDS011;5028;50.974;4.968;2022-07-29T15:57:28;5.10;;;1.70;;
9974;SDS011;5028;50.974;4.968;2022-07-29T15:59:56;5.72;;;1.77;;
9974;SDS011;5028;50.974;4.968;2022-07-29T16:02:34;3.08;;;1.80;;
9974;SDS011;5028;50.974;4.968;2022-07-29T16:05:06;4.17;;;1.73;;
9974;SDS011;5028;50.974;4.968;2022-07-29T16:07:41;4.50;;;2.00;;
9974;SDS011;5028;50.974;4.968;2022-07-29T16:10:10;4.43;;;1.90;;
9974;SDS011;5028;50.974;4.968;2022-07-29T16:12:45;5.03;;;1.88;;
9974;SDS011;5028;50.974;4.968;2022-07-29T16:15:14;3.65;;;1.95;;
9974;SDS011;5028;50.974;4.968;2022-07-29T16:17:50;4.78;;;2.13;;
9974;SDS011;5028;50.974;4.968;2022-07-29T16:20:21;4.30;;;1.73;;